Logo AVAMET
Benvolgut visitant, si us plau, ingressa Recuperar contrasenya

València Jesús

Dades diàries. Acumulats / Últims 30 dies disponibles

Data Temperatura (°C) Humitat rel. (%) Pressió rel. (hPa) Vent (km/h) Precipitació
Mínima Mitjana Màxima Amplitud
tèrmica
Mínima Mitjana Màxima Mínima Mitjana Màxima Predom. Mitjana Ràfega
màxima
Total
(mm)
Índex-n
Mínima Mitjana Màxima Mínima Mitjana Màxima n
0 a 1
P0 max
mm 5'
Dades mensuals acumulades fins l'últim dia disponible
05/2019 10,1 14,8 20,9 18,9 19,0 23,1 32,7 22,6 25 65 94 1.000 1.012 1.023   4,6 49,9 6,2
Dades anuals acumulades fins l'últim dia disponible
2019 2,5 10,1 20,9 14,7 12,2 19,3 32,7 30,2 0 60 98 991 1.017 1.034   4,2 67,6 80,8
Últims 30 dies disponibles
19-05-2019 13,5     18,5     24,8 11,3 25 54 80 1.007 1.009 1.011 SE 2,2 22,5 0,0
18-05-2019 14,4     17,2     19,7 5,3 44 58 74 1.007 1.008 1.010 SSE 2,5 19,3 0,6
17-05-2019 15,6     20,0     23,7 8,1 32 48 83 1.000 1.003 1.008 SSO 7,9 49,9 0,0
16-05-2019 16,2     18,8     22,2 6,0 54 70 83 1.003 1.009 1.014 SE 5,8 32,2 0,0
15-05-2019 15,6     18,6     22,1 6,5 62 74 80 1.010 1.011 1.014 SE 4,8 33,8 0,0
14-05-2019 13,8     19,4     24,3 10,5 39 64 84 1.012 1.016 1.020 SE 5,0 27,4 0,0
13-05-2019 16,2     19,7     23,8 7,6 33 68 89 1.017 1.019 1.020 SE 4,5 29,0 0,0
12-05-2019 15,4     19,7     22,7 7,3 42 63 81 1.018 1.021 1.023 SE 3,6 25,7 0,0
11-05-2019 17,7     21,1     24,6 6,9 52 70 84 1.013 1.017 1.022 SE 3,9 24,1 0,0
10-05-2019 20,9     26,2     32,7 11,8 27 49 67 1.009 1.011 1.012 SSO 7,1 32,2 0,0
09-05-2019 19,6     23,7     29,7 10,1 28 47 65 1.008 1.010 1.012 SSO 7,4 35,4 0,0
08-05-2019 14,9     22,2     28,2 13,3 36 61 94 1.007 1.010 1.013 SE 8,8 48,3 0,0
07-05-2019 13,1     17,3     21,4 8,3 69 80 90 1.012 1.015 1.018 SSE 3,7 22,5 0,0
06-05-2019 10,9     15,8     19,2 8,3 51 72 84 1.016 1.017 1.018 SE 3,0 20,9 0,0
05-05-2019 13,7     16,5     19,1 5,4 29 57 80 1.011 1.014 1.016 SSE 4,1 24,1 0,0
04-05-2019 10,1     15,6     20,2 10,1 41 67 89 1.009 1.011 1.013 S 4,6 29,0 0,0
03-05-2019 12,1     15,1     19,0 6,9 64 79 88 1.009 1.011 1.014 SE 2,6 27,4 2,6
02-05-2019 14,8     17,3     20,8 6,0 51 76 92 1.013 1.014 1.015 ESE 3,1 17,7 1,6 0,26 0,60
01-05-2019 13,4     16,7     20,5 7,1 55 80 89 1.011 1.014 1.015 SE 2,9 19,3 1,4 0,21 0,40
30-04-2019 12,8     16,9     20,2 7,4 65 79 90 1.015 1.016 1.017 SE 3,6 20,9 0,0
29-04-2019 12,5     16,1     19,4 6,9 67 78 87 1.016 1.018 1.020 SE 2,7 19,3 0,0
24-04-2019 12,4     12,8     13,8 1,4 57 59 61 1.002 1.003 1.003 SO 8,2 33,8 0,0
23-04-2019 11,1     15,6     21,5 10,4 44 72 92 997 998 1.002 SO 4,5 41,8 1,2 0,40
22-04-2019 12,7     14,9     17,1 4,4 68 79 88 998 1.000 1.005 S 2,4 24,1 3,4 0,05 0,60
21-04-2019 12,1     14,6     15,9 3,8 60 72 94 1.005 1.009 1.015 E 16,2 62,8 2,8 0,40 0,80
20-04-2019 14,5     15,2     16,2 1,7 60 69 82 1.015 1.015 1.016 E 17,4 67,6 3,6 0,26 0,60
19-04-2019 12,5     13,6     14,8 2,3 90 96 98 1.012 1.015 1.017 ESE 13,4 59,5 18,8 0,53 2,70
18-04-2019 12,1     14,5     15,4 3,3 0 87 96 1.010 1.012 1.017 ESE 11,0 53,1 18,2 0,46 4,00
17-04-2019 13,9     15,8     18,4 4,5 67 76 84 1.015 1.017 1.020 ESE 5,3 22,5 0,0
16-04-2019 13,6     16,1     19,4 5,8 60 74 83 1.014 1.017 1.020 SE 3,5 20,9 0,0
Últims 13 mesos disponibles
04/2019 9,2 11,7 14,5 15,4 13,8 19,5 29,8 20,6 42 65 96 998 1.010 1.018 S 6,4 67,6 59,4
03/2019 7,3 10,4 16,2 15,4 13,4 20,2 29,3 22,0 41 56 84 1.008 1.021 1.028 SSE 3,6 56,3 15,0
02/2019 4,9 8,1 11,1 13,2 12,8 18,2 25,4 20,5 33 61 74 993 1.023 1.032 ESE 3,4 59,5 0,0
01/2019 2,5 7,2 12,9 12,3 12,2 17,1 20,6 18,1 37 55 74 1.000 1.017 1.029 SE 3,5 54,7 0,2
12/2018 5,4 9,4 12,8 13,4 14,4 18,9 23,7 18,3 48 68 82 1.007 1.024 1.029 SO 2,5 43,5 10,0
11/2018 7,3 11,8 16,5 14,9 14,8 18,9 24,3 17,0 50 71 93 1.000 1.014 1.022 SSO 4,1 57,9 97,4
10/2018 7,4 15,5 19,5 19,1 13,8 23,2 28,1 20,7 44 70 90 999 1.013 1.024 3,1 49,9 169,0
09/2018 17,7 21,6 23,9 24,8 25,1 28,5 32,5 14,8 68 75 84 1.010 1.017 1.027 3,6 39,0 156,2
08/2018 20,9 24,3 26,6 27,5 27,6 31,2 37,4 16,5 51 68 78 1.010 1.015 1.019 4,3 55,0 15,8
07/2018 22,2 23,6 25,2 27,1 28,2 31,0 36,4 14,2 40 68 76 1.008 1.013 1.018 4,5 39,0 1,6
06/2018 15,2 20,0 23,6 23,7 23,4 27,7 31,4 16,2 45 64 79 1.008 1.013 1.019 4,2 37,0 106,6
05/2018 9,7 15,7 19,1 19,4 18,0 23,9 28,6 18,9 41 65 81 1.008 1.013 1.016 3,8 43,0 12,8
04/2018 9,6 13,0 16,9 16,7 14,1 20,8 26,8 17,2 44 61 82 994 1.012 1.024 5,1 55,0 16,0
Tots els anys disponibles
2017 1,4 15,0 26,6 19,1 9,3 23,3 36,8 35,4 31 64 90 996 1.017 1.035 S 1,1 69,0 316,0
2016 3,3 15,1 25,8 18,9 11,1 22,8 36,6 33,3 32 64 89 994 1.017 1.036 71,0 569,8
Temperatura (°C)
Humitat relativa (%)
Velocitat del vent i ràfega màxima (km/h)
Direcció del vent (°)
Pressió (hPa)
Precipitació (mm)
Nota sobre les dades: s'avisa a l'usuari de la provisionalitat i no oficialitat d'aquestes dades
Logo AVAMET blanc
Web allotjada a Sollutia
Llicència de Creative CommonsLa web d'AVAMET i els seus continguts estan subjectes a una llicència de
Reconeixement - No Comercial - Compartir igual
Properes estacions: Altea - Club Nàutic d'Altea (Soci), Ontinyent - El Pilar (Soci), Ares del Maestrat (Ajuntament Soci), Catadau - L'Altet (Inforatge)     - - - - -      Últimes estacions: Jacarilla - centro (MeteOrihuela), Elx - Maitino/Vallverda/Velarde/Matola/Ferriol (Soci TiempoElche.com), Orihuela - Playa Flamenca (MeteOrihuela), Puçol - Ciutat Jardí (Soci), Alzira - La Casella (Soci) - - -